createdAt,value
2023-01-28T00:01:52.336Z,102839.38
2023-01-28T00:04:20.930Z,102836.75
2023-01-28T00:06:49.520Z,102844.56
2023-01-28T00:09:19.064Z,102845.41
2023-01-28T00:11:49.136Z,102835.78
2023-01-28T00:14:17.895Z,102832.31
2023-01-28T00:16:46.678Z,102826.13
2023-01-28T00:19:15.355Z,102828.75
2023-01-28T00:21:43.964Z,102823.53
2023-01-28T00:24:14.783Z,102816.53
2023-01-28T00:26:44.149Z,102820.97
2023-01-28T00:29:15.386Z,102821.88
2023-01-28T00:31:44.139Z,102817.59
2023-01-28T00:34:12.806Z,102826.25
2023-01-28T00:36:42.545Z,102821.84
2023-01-28T00:39:15.444Z,102820.94
2023-01-28T00:41:43.979Z,102834.84
2023-01-28T00:44:12.813Z,102825.22
2023-01-28T00:46:43.994Z,102819.03
2023-01-28T00:49:13.686Z,102820.72
2023-01-28T00:51:43.937Z,102813.75
2023-01-28T00:54:14.369Z,102815.38
2023-01-28T00:56:45.193Z,102807.53
2023-01-28T00:59:14.392Z,102807.53
2023-01-28T01:01:44.470Z,102796.16
2023-01-28T01:04:13.578Z,102791.84
2023-01-28T01:06:42.402Z,102794.47
2023-01-28T01:09:13.566Z,102788.34
2023-01-28T01:11:43.780Z,102779.66
2023-01-28T01:14:13.645Z,102776.22
2023-01-28T01:16:47.847Z,102778.00
2023-01-28T01:19:20.916Z,102779.72
2023-01-28T01:21:51.046Z,102777.94
2023-01-28T01:24:20.653Z,102777.81
2023-01-28T01:26:50.090Z,102771.75
2023-01-28T01:29:18.882Z,102775.19
2023-01-28T01:31:48.956Z,102766.44
2023-01-28T01:34:19.345Z,102762.09
2023-01-28T01:36:48.110Z,102762.97
2023-01-28T01:39:16.777Z,102762.97
2023-01-28T01:41:46.243Z,102751.66
2023-01-28T01:44:55.005Z,102758.63
2023-01-28T01:47:36.655Z,102759.50
2023-01-28T01:50:10.336Z,102761.16
2023-01-28T01:52:44.152Z,102759.41
2023-01-28T01:55:18.273Z,102772.50
2023-01-28T01:57:49.743Z,102771.53
2023-01-28T02:00:24.720Z,102771.53
2023-01-28T02:02:57.074Z,102773.25
2023-01-28T02:05:25.621Z,102779.31
2023-01-28T02:08:20.237Z,102785.41
2023-01-28T02:10:52.076Z,102790.59
2023-01-28T02:13:24.719Z,102790.56
2023-01-28T02:15:53.960Z,102804.38
2023-01-28T02:18:24.065Z,102800.91
2023-01-28T02:21:16.032Z,102793.97
2023-01-28T02:24:01.696Z,102802.63
2023-01-28T02:27:02.616Z,102810.53
2023-01-28T02:29:39.807Z,102827.13
2023-01-28T02:32:16.353Z,102842.03
2023-01-28T02:34:52.243Z,102836.84
2023-01-28T02:37:26.460Z,102827.41
2023-01-28T02:40:01.832Z,102836.16
2023-01-28T02:42:37.075Z,102850.16
2023-01-28T02:45:17.398Z,102854.50
2023-01-28T02:47:58.181Z,102846.75
2023-01-28T02:50:39.601Z,102845.00
2023-01-28T02:53:37.539Z,102824.09
2023-01-28T02:56:17.624Z,102816.25
2023-01-28T02:58:58.750Z,102814.59
2023-01-28T03:01:37.186Z,102815.44
2023-01-28T03:04:11.500Z,102812.84
2023-01-28T03:06:46.505Z,102813.75
2023-01-28T03:09:27.510Z,102814.63
2023-01-28T03:12:16.512Z,102804.19
2023-01-28T03:15:07.923Z,102808.50
2023-01-28T03:17:59.619Z,102804.97
2023-01-28T03:20:53.192Z,102801.47
2023-01-28T03:23:45.393Z,102808.41
2023-01-28T03:26:34.391Z,102800.50
2023-01-28T03:29:26.945Z,102803.97
2023-01-28T03:32:14.423Z,102800.44
2023-01-28T03:35:06.635Z,102804.69
2023-01-28T03:37:36.250Z,102816.09
2023-01-28T03:40:08.145Z,102826.53
2023-01-28T03:42:36.993Z,102829.97
2023-01-28T03:45:08.235Z,102831.69
2023-01-28T03:47:36.775Z,102829.88
2023-01-28T03:50:07.473Z,102822.03
2023-01-28T03:52:35.869Z,102819.41
2023-01-28T03:55:14.892Z,102816.78
2023-01-28T03:57:45.273Z,102824.56
2023-01-28T04:00:17.456Z,102826.25
2023-01-28T04:02:47.164Z,102829.75
2023-01-28T04:05:20.250Z,102829.66
2023-01-28T04:07:48.533Z,102829.59
2023-01-28T04:10:18.792Z,102826.09
2023-01-28T04:12:50.115Z,102825.16
2023-01-28T04:15:19.759Z,102828.63
2023-01-28T04:17:48.993Z,102830.34
2023-01-28T04:20:19.471Z,102823.34
2023-01-28T04:22:48.080Z,102820.72
2023-01-28T04:25:17.086Z,102813.72
2023-01-28T04:27:45.755Z,102809.34
2023-01-28T04:30:14.531Z,102801.50
2023-01-28T04:32:43.776Z,102810.25
2023-01-28T04:35:12.606Z,102812.00
2023-01-28T04:37:44.389Z,102812.88
2023-01-28T04:40:14.375Z,102811.97
2023-01-28T04:42:43.188Z,102814.56
2023-01-28T04:45:12.679Z,102814.50
2023-01-28T04:47:49.634Z,102816.28
2023-01-28T04:50:18.709Z,102821.50
2023-01-28T04:52:50.955Z,102829.34
2023-01-28T04:55:19.801Z,102847.63
2023-01-28T04:57:49.883Z,102842.38
2023-01-28T05:00:19.723Z,102836.25
2023-01-28T05:02:48.356Z,102840.63
2023-01-28T05:05:17.455Z,102837.13
2023-01-28T05:07:52.043Z,102832.72
2023-01-28T05:10:25.707Z,102838.81
2023-01-28T05:12:54.253Z,102843.16
2023-01-28T05:15:23.112Z,102841.41
2023-01-28T05:17:55.842Z,102837.09
2023-01-28T05:20:26.264Z,102842.34
2023-01-28T05:22:54.960Z,102851.09
2023-01-28T05:25:25.015Z,102852.00
2023-01-28T05:27:54.005Z,102855.47
2023-01-28T05:30:23.209Z,102851.13
2023-01-28T05:32:56.504Z,102863.41
2023-01-28T05:35:25.367Z,102877.34
2023-01-28T05:37:55.235Z,102865.13
2023-01-28T05:40:25.384Z,102865.13
2023-01-28T05:42:55.002Z,102872.09
2023-01-28T05:45:23.732Z,102874.72
2023-01-28T05:47:52.397Z,102872.13
2023-01-28T05:50:21.080Z,102866.91
2023-01-28T05:52:49.752Z,102861.69
2023-01-28T05:55:20.728Z,102859.94
2023-01-28T05:57:55.099Z,102855.63
2023-01-28T06:00:25.046Z,102849.53
2023-01-28T06:02:53.476Z,102846.94
2023-01-28T06:05:22.480Z,102848.69
2023-01-28T06:07:51.443Z,102846.13
2023-01-28T06:10:21.072Z,102846.16
2023-01-28T06:12:49.967Z,102851.38
2023-01-28T06:15:22.016Z,102855.75
2023-01-28T06:17:50.652Z,102849.63
2023-01-28T06:20:19.517Z,102845.28
2023-01-28T06:22:48.313Z,102844.47
2023-01-28T06:25:18.762Z,102847.09
2023-01-28T06:27:47.918Z,102834.94
2023-01-28T06:30:17.288Z,102841.94
2023-01-28T06:32:48.450Z,102842.84
2023-01-28T06:35:17.181Z,102840.25
2023-01-28T06:37:45.699Z,102842.84
2023-01-28T06:40:15.073Z,102842.88
2023-01-28T06:42:45.162Z,102842.00
2023-01-28T06:45:14.033Z,102843.69
2023-01-28T06:47:42.654Z,102846.28
2023-01-28T06:50:19.106Z,102850.63
2023-01-28T06:52:49.830Z,102857.53
2023-01-28T06:55:18.545Z,102850.50
2023-01-28T06:57:47.218Z,102849.56
2023-01-28T07:00:17.216Z,102848.59
2023-01-28T07:02:46.127Z,102839.03
2023-01-28T07:05:14.873Z,102842.47
2023-01-28T07:07:45.923Z,102842.47
2023-01-28T07:10:14.732Z,102845.94
2023-01-28T07:12:45.770Z,102844.13
2023-01-28T07:15:15.594Z,102846.72
2023-01-28T07:17:50.208Z,102840.59
2023-01-28T07:20:19.233Z,102848.41
2023-01-28T07:22:49.286Z,102847.47
2023-01-28T07:25:18.323Z,102844.78
2023-01-28T07:27:52.266Z,102846.44
2023-01-28T07:30:22.508Z,102852.56
2023-01-28T07:32:55.959Z,102862.09
2023-01-28T07:35:24.618Z,102863.81
2023-01-28T07:37:56.696Z,102855.09
2023-01-28T07:40:27.677Z,102850.72
2023-01-28T07:42:57.534Z,102852.47
2023-01-28T07:45:29.144Z,102849.88
2023-01-28T07:47:59.100Z,102849.88
2023-01-28T07:50:29.351Z,102838.50
2023-01-28T07:52:59.855Z,102837.69
2023-01-28T07:55:31.277Z,102845.53
2023-01-28T07:58:01.692Z,102846.34
2023-01-28T08:00:33.415Z,102850.72
2023-01-28T08:03:04.488Z,102847.22
2023-01-28T08:05:44.069Z,102854.16
2023-01-28T08:08:14.161Z,102861.13
2023-01-28T08:10:44.312Z,102875.06
2023-01-28T08:13:14.017Z,102868.06
2023-01-28T08:15:43.226Z,102875.00
2023-01-28T08:18:14.266Z,102877.56
2023-01-28T08:20:45.126Z,102881.00
2023-01-28T08:23:17.328Z,102887.91
2023-01-28T08:25:46.823Z,102886.13
2023-01-28T08:28:17.432Z,102879.13
2023-01-28T08:30:47.217Z,102889.59
2023-01-28T08:33:20.405Z,102881.72
2023-01-28T08:35:48.992Z,102887.81
2023-01-28T08:38:20.767Z,102892.13
2023-01-28T08:40:50.873Z,102895.63
2023-01-28T08:43:20.528Z,102897.34
2023-01-28T08:45:49.519Z,102892.09
2023-01-28T08:48:20.350Z,102886.88
2023-01-28T08:50:48.943Z,102897.34
2023-01-28T08:53:20.818Z,102896.44
2023-01-28T08:55:49.359Z,102891.19
2023-01-28T08:58:19.761Z,102881.59
2023-01-28T09:00:49.362Z,102888.53
2023-01-28T09:03:18.625Z,102892.03
2023-01-28T09:05:47.276Z,102892.84
2023-01-28T09:08:18.636Z,102894.59
2023-01-28T09:10:47.222Z,102890.19
2023-01-28T09:13:17.497Z,102884.06
2023-01-28T09:15:46.063Z,102898.84
2023-01-28T09:18:14.629Z,102896.16
2023-01-28T09:20:43.401Z,102896.13
2023-01-28T09:23:12.446Z,102897.72
2023-01-28T09:25:43.614Z,102899.38
2023-01-28T09:28:12.039Z,102899.34
2023-01-28T09:30:41.034Z,102898.31
2023-01-28T09:33:21.587Z,102891.19
2023-01-28T09:35:50.240Z,102895.50
2023-01-28T09:38:19.615Z,102885.00
2023-01-28T09:40:50.079Z,102898.06
2023-01-28T09:43:38.916Z,102896.28
2023-01-28T09:46:10.612Z,102902.44
2023-01-28T09:48:43.554Z,102896.28
2023-01-28T09:51:20.390Z,102894.53
2023-01-28T09:53:54.162Z,102902.34
2023-01-28T09:56:31.581Z,102912.81
2023-01-28T09:59:01.858Z,102917.22
2023-01-28T10:01:42.507Z,102918.94
2023-01-28T10:04:28.369Z,102920.69
2023-01-28T10:07:10.919Z,102924.13
2023-01-28T10:09:48.638Z,102925.84
2023-01-28T10:12:41.197Z,102939.78
2023-01-28T10:15:35.169Z,102938.03
2023-01-28T10:18:17.142Z,102944.09
2023-01-28T10:20:52.490Z,102937.97
2023-01-28T10:23:28.409Z,102943.19
2023-01-28T10:26:00.915Z,102943.09
2023-01-28T10:28:33.166Z,102946.66
2023-01-28T10:31:01.788Z,102942.28
2023-01-28T10:33:37.298Z,102933.44
2023-01-28T10:36:06.721Z,102946.50
2023-01-28T10:38:35.827Z,102946.50
2023-01-28T10:41:08.846Z,102949.94
2023-01-28T10:43:42.145Z,102962.19
2023-01-28T10:46:15.969Z,102958.66
2023-01-28T10:48:48.027Z,102954.22
2023-01-28T10:51:17.091Z,102954.13
2023-01-28T10:53:47.719Z,102942.72
2023-01-28T10:56:19.947Z,102942.63
2023-01-28T10:59:00.341Z,102945.03
2023-01-28T11:01:43.886Z,102942.19
2023-01-28T11:04:23.892Z,102937.59
2023-01-28T11:06:58.793Z,102920.81
2023-01-28T11:09:31.174Z,102916.47
2023-01-28T11:12:00.097Z,102917.81
2023-01-28T11:14:30.166Z,102912.88
2023-01-28T11:17:00.195Z,102912.09
2023-01-28T11:19:37.873Z,102902.88
2023-01-28T11:22:06.283Z,102903.31
2023-01-28T11:24:35.999Z,102891.50
2023-01-28T11:27:17.849Z,102890.19
2023-01-28T11:29:48.011Z,102885.16
2023-01-28T11:32:21.348Z,102880.03
2023-01-28T11:34:52.306Z,102875.63
2023-01-28T11:37:24.247Z,102873.75
2023-01-28T11:40:03.400Z,102883.50
2023-01-28T11:42:33.344Z,102880.09
2023-01-28T11:45:04.325Z,102883.63
2023-01-28T11:47:55.671Z,102890.69
2023-01-28T11:50:38.567Z,102892.53
2023-01-28T11:53:37.188Z,102894.25
2023-01-28T11:56:24.240Z,102887.41
2023-01-28T11:59:04.691Z,102887.47
2023-01-28T12:01:47.320Z,102877.91
2023-01-28T12:04:28.732Z,102877.25
2023-01-28T12:07:12.473Z,102877.25
2023-01-28T12:09:53.286Z,102869.34
2023-01-28T12:12:43.797Z,102872.16
2023-01-28T12:15:57.673Z,102867.00
2023-01-28T12:18:50.202Z,102874.84
2023-01-28T12:21:29.585Z,102869.59
2023-01-28T12:24:12.135Z,102866.84
2023-01-28T12:26:51.472Z,102864.34
2023-01-28T12:29:37.104Z,102851.28
2023-01-28T12:32:22.350Z,102854.75
2023-01-28T12:35:11.546Z,102844.34
2023-01-28T12:37:55.590Z,102839.97
2023-01-28T12:40:41.558Z,102841.00
2023-01-28T12:43:16.563Z,102838.50
2023-01-28T12:45:48.000Z,102838.44
2023-01-28T12:48:21.668Z,102838.19
2023-01-28T12:50:56.869Z,102831.13
2023-01-28T12:53:30.917Z,102833.00
2023-01-28T12:56:07.881Z,102827.81
2023-01-28T12:58:42.248Z,102816.34
2023-01-28T13:01:15.807Z,102824.09
2023-01-28T13:03:53.075Z,102821.38
2023-01-28T13:06:29.325Z,102819.66
2023-01-28T13:09:02.747Z,102823.94
2023-01-28T13:11:37.470Z,102823.03
2023-01-28T13:14:06.894Z,102821.31
2023-01-28T13:16:38.107Z,102819.53
2023-01-28T13:19:11.037Z,102810.78
2023-01-28T13:21:49.067Z,102812.47
2023-01-28T13:24:24.909Z,102813.31
2023-01-28T13:26:56.134Z,102816.06
2023-01-28T13:29:32.741Z,102815.31
2023-01-28T13:32:03.408Z,102816.19
2023-01-28T13:34:36.498Z,102813.59
2023-01-28T13:37:19.406Z,102811.88
2023-01-28T13:39:51.569Z,102815.38
2023-01-28T13:42:26.430Z,102804.06
2023-01-28T13:44:55.329Z,102804.97
2023-01-28T13:47:28.672Z,102796.28
2023-01-28T13:49:59.999Z,102797.19
2023-01-28T13:52:33.707Z,102792.09
2023-01-28T13:55:06.762Z,102782.56
2023-01-28T13:58:21.772Z,102787.03
2023-01-28T14:01:32.212Z,102769.56
2023-01-28T14:04:34.768Z,102764.25
2023-01-28T14:07:26.844Z,102762.47
2023-01-28T14:10:35.964Z,102757.25
2023-01-28T14:13:34.623Z,102750.25
2023-01-28T14:16:32.097Z,102752.00
2023-01-28T14:19:03.492Z,102747.56
2023-01-28T14:21:37.456Z,102756.28
2023-01-28T14:24:07.060Z,102760.63
2023-01-28T14:26:48.368Z,102756.25
2023-01-28T14:29:27.274Z,102758.13
2023-01-28T14:31:56.957Z,102764.19
2023-01-28T14:34:29.703Z,102769.41
2023-01-28T14:37:00.760Z,102765.97
2023-01-28T14:39:31.375Z,102769.44
2023-01-28T14:42:04.330Z,102758.03
2023-01-28T14:44:36.376Z,102771.22
2023-01-28T14:47:27.856Z,102772.94
2023-01-28T14:50:10.213Z,102781.63
2023-01-28T14:52:57.139Z,102779.91
2023-01-28T14:55:35.870Z,102783.50
2023-01-28T14:58:07.884Z,102776.53
2023-01-28T15:00:39.995Z,102781.81
2023-01-28T15:03:26.835Z,102779.09
2023-01-28T15:06:14.635Z,102786.09
2023-01-28T15:08:43.623Z,102794.84
2023-01-28T15:11:15.046Z,102801.00
2023-01-28T15:13:48.126Z,102799.22
2023-01-28T15:16:21.154Z,102795.75
2023-01-28T15:18:52.110Z,102801.91
2023-01-28T15:21:24.662Z,102799.28
2023-01-28T15:23:57.044Z,102787.97
2023-01-28T15:26:27.848Z,102788.91
2023-01-28T15:28:58.054Z,102795.06
2023-01-28T15:31:28.488Z,102792.56
2023-01-28T15:34:01.981Z,102791.69
2023-01-28T15:36:31.745Z,102795.22
2023-01-28T15:39:00.598Z,102784.78
2023-01-28T15:41:34.159Z,102784.81
2023-01-28T15:44:05.372Z,102783.09
2023-01-28T15:46:34.306Z,102783.13
2023-01-28T15:49:05.556Z,102784.03
2023-01-28T15:51:35.411Z,102785.81
2023-01-28T15:54:07.326Z,102784.97
2023-01-28T15:56:35.693Z,102773.63
2023-01-28T15:59:21.123Z,102776.28
2023-01-28T16:01:49.867Z,102775.38
2023-01-28T16:04:25.954Z,102777.13
2023-01-28T16:06:56.568Z,102784.13
2023-01-28T16:09:29.123Z,102777.22
2023-01-28T16:12:04.475Z,102789.47
2023-01-28T16:14:42.464Z,102787.69
2023-01-28T16:17:13.109Z,102782.47
2023-01-28T16:19:46.417Z,102777.31
2023-01-28T16:22:22.066Z,102772.88
2023-01-28T16:24:54.103Z,102773.78
2023-01-28T16:27:25.260Z,102775.59
2023-01-28T16:29:55.470Z,102773.84
2023-01-28T16:32:35.759Z,102772.94
2023-01-28T16:35:06.709Z,102767.75
2023-01-28T16:37:36.101Z,102767.75
2023-01-28T16:40:06.173Z,102765.13
2023-01-28T16:42:35.018Z,102758.16
2023-01-28T16:45:05.517Z,102758.13
2023-01-28T16:47:34.100Z,102756.41
2023-01-28T16:50:02.448Z,102754.69
2023-01-28T16:52:31.083Z,102759.88
2023-01-28T16:54:59.625Z,102759.06
2023-01-28T16:57:28.024Z,102767.78
2023-01-28T16:59:56.427Z,102773.03
2023-01-28T17:02:26.153Z,102766.88
2023-01-28T17:04:55.138Z,102765.19
2023-01-28T17:07:23.473Z,102781.72
2023-01-28T17:09:53.008Z,102783.47
2023-01-28T17:12:21.649Z,102787.88
2023-01-28T17:14:50.088Z,102793.16
2023-01-28T17:17:19.889Z,102797.50
2023-01-28T17:19:49.964Z,102800.94
2023-01-28T17:22:18.555Z,102802.69
2023-01-28T17:24:49.712Z,102801.81
2023-01-28T17:27:19.279Z,102799.22
2023-01-28T17:29:47.716Z,102803.59
2023-01-28T17:32:16.495Z,102801.84
2023-01-28T17:34:45.601Z,102807.09
2023-01-28T17:37:15.888Z,102806.28
2023-01-28T17:39:44.683Z,102808.91
2023-01-28T17:42:13.304Z,102814.25
2023-01-28T17:44:41.823Z,102802.84
2023-01-28T17:47:10.409Z,102797.66
2023-01-28T17:49:38.665Z,102800.28
2023-01-28T17:52:07.275Z,102794.22
2023-01-28T17:54:37.039Z,102796.91
2023-01-28T17:57:06.496Z,102797.75
2023-01-28T17:59:35.459Z,102801.25
2023-01-28T18:02:06.154Z,102809.09
2023-01-28T18:04:40.309Z,102802.94
2023-01-28T18:07:11.466Z,102810.88
2023-01-28T18:09:42.864Z,102810.00
2023-01-28T18:12:14.172Z,102796.84
2023-01-28T18:14:43.331Z,102795.13
2023-01-28T18:17:13.481Z,102795.13
2023-01-28T18:19:42.125Z,102799.53
2023-01-28T18:22:12.169Z,102803.84
2023-01-28T18:24:42.224Z,102787.28
2023-01-28T18:27:10.790Z,102793.44
2023-01-28T18:29:40.335Z,102788.19
2023-01-28T18:32:09.030Z,102786.53
2023-01-28T18:34:37.647Z,102789.16
2023-01-28T18:37:08.093Z,102786.53
2023-01-28T18:39:36.352Z,102805.72
2023-01-28T18:42:07.464Z,102804.88
2023-01-28T18:44:35.888Z,102802.31
2023-01-28T18:47:04.632Z,102814.50
2023-01-28T18:49:33.324Z,102808.41
2023-01-28T18:52:01.806Z,102801.41
2023-01-28T18:54:30.308Z,102800.53
2023-01-28T18:56:58.993Z,102799.69
2023-01-28T18:59:29.157Z,102796.19
2023-01-28T19:01:57.925Z,102801.44
2023-01-28T19:04:26.573Z,102797.09
2023-01-28T19:06:57.822Z,102795.34
2023-01-28T19:09:26.340Z,102793.63
2023-01-28T19:11:54.690Z,102784.06
2023-01-28T19:14:23.260Z,102785.81
2023-01-28T19:16:54.345Z,102792.81
2023-01-28T19:19:22.904Z,102788.44
2023-01-28T19:21:51.454Z,102780.56
2023-01-28T19:24:19.927Z,102784.00
2023-01-28T19:26:49.385Z,102776.13
2023-01-28T19:29:18.878Z,102772.72
2023-01-28T19:31:49.390Z,102768.25
2023-01-28T19:34:19.560Z,102767.34
2023-01-28T19:36:48.268Z,102764.75
2023-01-28T19:39:17.917Z,102772.72
2023-01-28T19:41:46.565Z,102764.91
2023-01-28T19:44:15.124Z,102777.09
2023-01-28T19:46:43.669Z,102772.72
2023-01-28T19:49:13.419Z,102772.72
2023-01-28T19:51:45.244Z,102762.22
2023-01-28T19:54:14.085Z,102759.66
2023-01-28T19:56:42.696Z,102763.19
2023-01-28T19:59:11.542Z,102750.84
2023-01-28T20:01:40.187Z,102751.75
2023-01-28T20:04:10.853Z,102752.66
2023-01-28T20:06:39.487Z,102757.13
2023-01-28T20:09:20.101Z,102751.94
2023-01-28T20:11:48.711Z,102756.44
2023-01-28T20:14:18.753Z,102752.25
2023-01-28T20:16:48.471Z,102758.41
2023-01-28T20:19:19.136Z,102749.72
2023-01-28T20:21:48.492Z,102750.63
2023-01-28T20:24:18.746Z,102743.72
2023-01-28T20:26:48.505Z,102743.78
2023-01-28T20:29:20.429Z,102730.63
2023-01-28T20:32:05.002Z,102732.44
2023-01-28T20:34:37.458Z,102739.41
2023-01-28T20:37:06.757Z,102740.25
2023-01-28T20:39:36.819Z,102738.50
2023-01-28T20:42:06.552Z,102739.34
2023-01-28T20:44:35.257Z,102743.72
2023-01-28T20:47:04.570Z,102740.19
2023-01-28T20:49:33.124Z,102734.06
2023-01-28T20:52:01.893Z,102728.88
2023-01-28T20:54:30.464Z,102729.81
2023-01-28T20:57:00.677Z,102729.81
2023-01-28T20:59:29.430Z,102727.19
2023-01-28T21:01:59.022Z,102736.78
2023-01-28T21:04:27.598Z,102732.44
2023-01-28T21:06:57.313Z,102734.97
2023-01-28T21:09:28.154Z,102725.41
2023-01-28T21:11:56.460Z,102728.00
2023-01-28T21:14:27.555Z,102724.47
2023-01-28T21:16:56.157Z,102726.25
2023-01-28T21:19:24.914Z,102728.78
2023-01-28T21:21:53.550Z,102723.53
2023-01-28T21:24:21.848Z,102720.03
2023-01-28T21:26:51.566Z,102721.75
2023-01-28T21:29:20.669Z,102712.13
2023-01-28T21:31:52.391Z,102713.06
2023-01-28T21:34:21.911Z,102711.22
2023-01-28T21:36:50.891Z,102715.63
2023-01-28T21:39:19.392Z,102719.91
2023-01-28T21:41:49.256Z,102724.22
2023-01-28T21:44:17.931Z,102728.56
2023-01-28T21:46:48.054Z,102728.50
2023-01-28T21:49:21.324Z,102718.03
2023-01-28T21:51:49.811Z,102720.66
2023-01-28T21:54:20.521Z,102727.69
2023-01-28T21:56:51.025Z,102713.84
2023-01-28T21:59:30.236Z,102720.75
2023-01-28T22:02:00.528Z,102712.94
2023-01-28T22:04:34.064Z,102712.13
2023-01-28T22:07:03.632Z,102719.19
2023-01-28T22:09:34.032Z,102715.72
2023-01-28T22:12:05.368Z,102717.44
2023-01-28T22:14:33.992Z,102714.81
2023-01-28T22:17:02.646Z,102713.00
2023-01-28T22:19:32.469Z,102713.06
2023-01-28T22:22:02.719Z,102712.19
2023-01-28T22:24:32.290Z,102714.81
2023-01-28T22:27:01.049Z,102716.56
2023-01-28T22:29:29.587Z,102711.34
2023-01-28T22:31:59.385Z,102715.72
2023-01-28T22:34:27.887Z,102714.00
2023-01-28T22:36:58.271Z,102708.75
2023-01-28T22:39:26.824Z,102705.28
2023-01-28T22:41:55.481Z,102710.59
2023-01-28T22:44:24.065Z,102717.59
2023-01-28T22:46:52.747Z,102718.47
2023-01-28T22:49:22.563Z,102717.69
2023-01-28T22:51:51.156Z,102723.81
2023-01-28T22:54:21.281Z,102711.59
2023-01-28T22:56:49.692Z,102707.31
2023-01-28T22:59:18.144Z,102711.69
2023-01-28T23:01:46.461Z,102704.78
2023-01-28T23:04:15.029Z,102705.69
2023-01-28T23:06:43.703Z,102710.06
2023-01-28T23:09:12.306Z,102714.41
2023-01-28T23:11:43.668Z,102720.63
2023-01-28T23:14:29.539Z,102712.06
2023-01-28T23:17:16.650Z,102718.25
2023-01-28T23:20:02.689Z,102716.59
2023-01-28T23:22:51.466Z,102714.97
2023-01-28T23:25:21.711Z,102705.41
2023-01-28T23:27:51.704Z,102708.94
2023-01-28T23:30:25.333Z,102706.41
2023-01-28T23:32:57.272Z,102695.97
2023-01-28T23:35:27.908Z,102680.31
2023-01-28T23:37:56.853Z,102689.06
2023-01-28T23:40:27.558Z,102690.69
2023-01-28T23:42:58.480Z,102695.13
2023-01-28T23:45:27.097Z,102697.78
2023-01-28T23:47:55.790Z,102693.41
2023-01-28T23:50:24.233Z,102684.59
2023-01-28T23:52:52.862Z,102677.69
2023-01-28T23:55:21.588Z,102688.13
2023-01-28T23:57:50.464Z,102683.78
